createdAt,value
2017-08-01T00:00:48.643Z,20.40
2017-08-01T00:03:16.203Z,20.40
2017-08-01T00:05:43.781Z,20.50
2017-08-01T00:08:11.399Z,20.50
2017-08-01T00:10:38.942Z,20.50
2017-08-01T00:13:07.245Z,20.40
2017-08-01T00:15:34.809Z,20.30
2017-08-01T00:18:02.329Z,20.30
2017-08-01T00:20:29.895Z,20.50
2017-08-01T00:22:57.419Z,20.50
2017-08-01T00:25:24.981Z,20.40
2017-08-01T00:27:52.550Z,20.20
2017-08-01T00:30:20.068Z,20.20
2017-08-01T00:32:47.610Z,20.20
2017-08-01T00:35:15.138Z,20.20
2017-08-01T00:37:42.705Z,20.20
2017-08-01T00:40:10.241Z,20.20
2017-08-01T00:42:37.797Z,20.10
2017-08-01T00:45:05.385Z,20.10
2017-08-01T00:47:32.916Z,20.10
2017-08-01T00:50:00.443Z,20.10
2017-08-01T00:52:28.012Z,20.00
2017-08-01T00:54:55.532Z,20.00
2017-08-01T00:57:23.068Z,20.00
2017-08-01T00:59:50.653Z,20.00
2017-08-01T01:02:18.186Z,20.00
2017-08-01T01:04:45.752Z,20.10
2017-08-01T01:07:13.271Z,20.00
2017-08-01T01:09:40.817Z,20.00
2017-08-01T01:12:08.426Z,19.90
2017-08-01T01:14:35.957Z,19.70
2017-08-01T01:17:03.536Z,19.70
2017-08-01T01:19:31.059Z,19.60
2017-08-01T01:21:58.594Z,19.80
2017-08-01T01:24:26.152Z,20.00
2017-08-01T01:26:53.680Z,20.20
2017-08-01T01:29:21.222Z,20.30
2017-08-01T01:31:48.759Z,20.50
2017-08-01T01:34:16.317Z,20.50
2017-08-01T01:36:44.624Z,20.40
2017-08-01T01:39:12.185Z,20.30
2017-08-01T01:41:39.717Z,20.30
2017-08-01T01:44:08.013Z,20.20
2017-08-01T01:46:35.606Z,20.10
2017-08-01T01:49:03.129Z,20.20
2017-08-01T01:51:30.689Z,20.10
2017-08-01T01:53:58.245Z,20.20
2017-08-01T01:56:25.790Z,20.10
2017-08-01T01:58:54.085Z,20.30
2017-08-01T02:01:21.657Z,20.30
2017-08-01T02:03:49.176Z,20.40
2017-08-01T02:06:16.722Z,20.30
2017-08-01T02:08:44.274Z,20.30
2017-08-01T02:11:11.781Z,20.30
2017-08-01T02:13:39.329Z,20.50
2017-08-01T02:16:07.679Z,20.50
2017-08-01T02:18:35.209Z,20.40
2017-08-01T02:21:02.740Z,20.50
2017-08-01T02:23:30.282Z,20.60
2017-08-01T02:25:58.569Z,20.50
2017-08-01T02:28:26.906Z,20.40
2017-08-01T02:30:54.425Z,20.40
2017-08-01T02:33:21.966Z,20.50
2017-08-01T02:35:49.507Z,20.50
2017-08-01T02:38:17.037Z,20.60
2017-08-01T02:40:44.619Z,20.80
2017-08-01T02:43:12.146Z,20.90
2017-08-01T02:45:39.715Z,20.90
2017-08-01T02:48:07.249Z,21.00
2017-08-01T02:50:34.801Z,20.90
2017-08-01T02:53:02.396Z,21.00
2017-08-01T02:55:29.932Z,21.10
2017-08-01T02:57:57.463Z,21.20
2017-08-01T03:00:25.789Z,21.30
2017-08-01T03:02:53.309Z,21.20
2017-08-01T03:05:21.624Z,21.40
2017-08-01T03:07:49.166Z,21.30
2017-08-01T03:10:16.707Z,21.40
2017-08-01T03:12:44.280Z,21.40
2017-08-01T03:15:11.843Z,21.40
2017-08-01T03:17:39.381Z,21.50
2017-08-01T03:20:07.731Z,21.50
2017-08-01T03:22:35.261Z,21.50
2017-08-01T03:25:03.645Z,21.50
2017-08-01T03:27:31.262Z,21.60
2017-08-01T03:29:58.785Z,21.60
2017-08-01T03:32:26.358Z,21.70
2017-08-01T03:34:53.893Z,21.70
2017-08-01T03:37:21.412Z,21.80
2017-08-01T03:39:49.723Z,21.60
2017-08-01T03:42:17.293Z,21.50
2017-08-01T03:44:44.822Z,21.50
2017-08-01T03:47:12.361Z,21.30
2017-08-01T03:49:40.669Z,21.40
2017-08-01T03:52:08.233Z,21.30
2017-08-01T03:54:35.765Z,21.20
2017-08-01T03:57:04.062Z,21.30
2017-08-01T03:59:31.628Z,21.20
2017-08-01T04:01:59.178Z,21.30
2017-08-01T04:04:27.525Z,21.00
2017-08-01T04:06:55.838Z,21.00
2017-08-01T04:09:23.414Z,20.90
2017-08-01T04:11:51.360Z,21.10
2017-08-01T04:14:18.900Z,21.00
2017-08-01T04:16:46.505Z,21.10
2017-08-01T04:19:14.041Z,21.00
2017-08-01T04:21:42.371Z,21.20
2017-08-01T04:24:09.923Z,21.10
2017-08-01T04:26:37.449Z,21.10
2017-08-01T04:29:05.005Z,21.10
2017-08-01T04:31:32.529Z,21.10
2017-08-01T04:34:00.103Z,21.20
2017-08-01T04:36:27.675Z,21.20
2017-08-01T04:38:55.970Z,21.30
2017-08-01T04:41:23.510Z,21.20
2017-08-01T04:43:51.804Z,21.30
2017-08-01T04:46:20.123Z,21.30
2017-08-01T04:48:47.666Z,21.20
2017-08-01T04:51:15.185Z,21.30
2017-08-01T04:53:43.499Z,21.70
2017-08-01T04:56:11.025Z,21.70
2017-08-01T04:58:39.345Z,22.00
2017-08-01T05:01:06.896Z,21.90
2017-08-01T05:03:34.406Z,22.00
2017-08-01T05:06:01.951Z,22.20
2017-08-01T05:08:29.459Z,22.20
2017-08-01T05:10:57.011Z,22.30
2017-08-01T05:13:24.560Z,22.30
2017-08-01T05:15:52.844Z,22.40
2017-08-01T05:18:21.144Z,22.50
2017-08-01T05:20:48.741Z,22.50
2017-08-01T05:23:16.256Z,22.60
2017-08-01T05:25:43.775Z,22.90
2017-08-01T05:28:11.300Z,22.90
2017-08-01T05:30:38.805Z,23.10
2017-08-01T05:33:06.404Z,23.40
2017-08-01T05:35:33.927Z,23.30
2017-08-01T05:38:01.431Z,23.50
2017-08-01T05:40:28.966Z,23.70
2017-08-01T05:42:57.234Z,24.00
2017-08-01T05:45:25.526Z,24.20
2017-08-01T05:47:53.807Z,24.20
2017-08-01T05:50:21.311Z,24.20
2017-08-01T05:52:48.855Z,24.20
2017-08-01T05:55:16.374Z,24.40
2017-08-01T05:57:44.645Z,24.60
2017-08-01T06:00:12.948Z,24.70
2017-08-01T06:02:40.456Z,24.70
2017-08-01T06:05:07.982Z,24.70
2017-08-01T06:07:35.511Z,24.90
2017-08-01T06:10:03.796Z,25.30
2017-08-01T06:12:32.065Z,25.40
2017-08-01T06:15:00.349Z,25.50
2017-08-01T06:17:28.620Z,25.60
2017-08-01T06:19:58.055Z,25.60
2017-08-01T06:22:26.295Z,25.80
2017-08-01T06:24:54.583Z,26.10
2017-08-01T06:27:22.883Z,26.20
2017-08-01T06:29:50.391Z,26.10
2017-08-01T06:32:17.911Z,26.30
2017-08-01T06:34:45.415Z,26.50
2017-08-01T06:37:12.939Z,26.70
2017-08-01T06:39:40.444Z,26.90
2017-08-01T06:42:08.747Z,27.30
2017-08-01T06:44:36.250Z,27.30
2017-08-01T06:47:03.787Z,27.70
2017-08-01T06:49:31.287Z,27.80
2017-08-01T06:51:58.792Z,27.80
2017-08-01T06:54:26.321Z,27.90
2017-08-01T06:56:53.837Z,27.90
2017-08-01T06:59:21.410Z,27.90
2017-08-01T07:01:48.920Z,28.10
2017-08-01T07:04:16.439Z,28.30
2017-08-01T07:06:43.976Z,28.30
2017-08-01T07:09:11.521Z,28.30
2017-08-01T07:11:39.219Z,28.30
2017-08-01T07:14:06.747Z,28.40
2017-08-01T07:16:34.284Z,28.30
2017-08-01T07:19:01.803Z,28.30
2017-08-01T07:21:29.316Z,28.30
2017-08-01T07:32:56.068Z,28.60
2017-08-01T07:35:34.488Z,28.60
2017-08-01T07:38:02.152Z,28.80
2017-08-01T07:40:29.687Z,29.00
2017-08-01T07:42:57.199Z,29.00
2017-08-01T07:45:24.753Z,29.10
2017-08-01T07:47:52.342Z,29.10
2017-08-01T07:50:19.859Z,29.10
2017-08-01T07:52:47.367Z,29.10
2017-08-01T07:55:14.903Z,29.40
2017-08-01T07:57:42.427Z,29.60
2017-08-01T08:00:09.974Z,29.80
2017-08-01T08:02:37.494Z,29.90
2017-08-01T08:05:05.776Z,30.10
2017-08-01T08:07:33.295Z,30.10
2017-08-01T08:10:00.809Z,30.10
2017-08-01T08:12:28.376Z,30.20
2017-08-01T08:14:55.879Z,30.40
2017-08-01T08:17:23.396Z,30.50
2017-08-01T08:19:50.927Z,30.40
2017-08-01T08:22:18.459Z,30.40
2017-08-01T08:24:46.757Z,30.60
2017-08-01T08:27:14.288Z,30.50
2017-08-01T08:29:41.854Z,30.60
2017-08-01T08:32:09.380Z,30.80
2017-08-01T08:34:36.887Z,30.90
2017-08-01T08:37:04.423Z,31.00
2017-08-01T08:39:32.703Z,31.10
2017-08-01T08:42:00.263Z,31.00
2017-08-01T08:44:27.792Z,31.00
2017-08-01T08:46:55.309Z,30.90
2017-08-01T08:49:22.894Z,31.00
2017-08-01T08:51:50.404Z,31.10
2017-08-01T08:54:17.926Z,31.10
2017-08-01T08:56:45.527Z,31.30
2017-08-01T08:59:13.040Z,31.50
2017-08-01T09:01:40.588Z,31.60
2017-08-01T09:04:08.127Z,31.60
2017-08-01T09:06:35.643Z,31.80
2017-08-01T09:09:03.175Z,32.00
2017-08-01T09:11:30.699Z,32.10
2017-08-01T09:13:58.223Z,32.00
2017-08-01T09:16:25.796Z,32.30
2017-08-01T09:18:53.300Z,32.30
2017-08-01T09:21:20.815Z,32.20
2017-08-01T09:23:48.348Z,31.90
2017-08-01T09:26:15.862Z,31.90
2017-08-01T09:28:43.414Z,32.00
2017-08-01T09:31:10.944Z,32.10
2017-08-01T09:33:38.464Z,31.80
2017-08-01T09:36:06.767Z,31.60
2017-08-01T09:38:34.279Z,31.50
2017-08-01T09:41:01.841Z,31.50
2017-08-01T09:43:30.133Z,31.60
2017-08-01T09:45:57.645Z,31.50
2017-08-01T09:48:25.204Z,31.50
2017-08-01T09:50:52.716Z,31.50
2017-08-01T09:53:20.232Z,31.70
2017-08-01T09:55:47.773Z,31.90
2017-08-01T09:58:15.282Z,32.10
2017-08-01T10:00:42.814Z,32.10
2017-08-01T10:03:10.366Z,31.90
2017-08-01T10:05:37.894Z,32.10
2017-08-01T10:08:05.448Z,32.10
2017-08-01T10:10:32.968Z,32.00
2017-08-01T10:13:00.473Z,32.00
2017-08-01T10:15:28.004Z,32.00
2017-08-01T10:17:55.521Z,32.40
2017-08-01T10:20:23.837Z,32.30
2017-08-01T10:22:51.354Z,32.30
2017-08-01T10:25:18.913Z,32.20
2017-08-01T10:27:46.461Z,32.20
2017-08-01T10:30:13.971Z,32.30
2017-08-01T10:32:41.555Z,32.60
2017-08-01T10:35:09.100Z,32.90
2017-08-01T10:37:36.618Z,33.00
2017-08-01T10:40:04.167Z,33.10
2017-08-01T10:42:31.684Z,33.40
2017-08-01T10:44:59.196Z,33.50
2017-08-01T10:47:26.747Z,33.60
2017-08-01T10:49:54.257Z,33.80
2017-08-01T10:52:21.792Z,33.80
2017-08-01T10:54:49.314Z,33.80
2017-08-01T10:57:16.875Z,33.90
2017-08-01T10:59:44.387Z,34.20
2017-08-01T11:02:11.900Z,34.40
2017-08-01T11:04:39.426Z,34.40
2017-08-01T11:07:06.929Z,34.60
2017-08-01T11:09:34.480Z,34.20
2017-08-01T11:12:02.000Z,34.30
2017-08-01T11:14:29.523Z,34.40
2017-08-01T11:16:57.059Z,34.70
2017-08-01T11:19:24.567Z,34.80
2017-08-01T11:21:52.875Z,35.10
2017-08-01T11:24:20.387Z,35.00
2017-08-01T11:26:47.917Z,35.20
2017-08-01T11:29:15.445Z,35.40
2017-08-01T11:31:42.963Z,35.60
2017-08-01T11:34:10.523Z,35.60
2017-08-01T11:36:38.036Z,35.60
2017-08-01T11:39:05.539Z,35.20
2017-08-01T11:41:33.067Z,35.10
2017-08-01T11:44:00.581Z,35.10
2017-08-01T11:46:28.141Z,34.70
2017-08-01T11:48:55.671Z,34.60
2017-08-01T11:51:23.196Z,35.00
2017-08-01T11:53:50.755Z,35.40
2017-08-01T11:56:18.275Z,36.00
2017-08-01T11:58:45.787Z,36.30
2017-08-01T12:01:13.340Z,36.70
2017-08-01T12:03:40.843Z,36.70
2017-08-01T12:06:08.364Z,36.70
2017-08-01T12:08:35.954Z,36.50
2017-08-01T12:11:03.468Z,36.30
2017-08-01T12:13:31.041Z,36.40
2017-08-01T12:15:58.595Z,36.60
2017-08-01T12:18:26.142Z,36.10
2017-08-01T12:20:53.686Z,35.80
2017-08-01T12:23:21.204Z,35.20
2017-08-01T12:25:48.735Z,35.00
2017-08-01T12:28:16.248Z,35.00
2017-08-01T12:30:43.796Z,34.90
2017-08-01T12:33:11.326Z,34.80
2017-08-01T12:35:38.858Z,34.70
2017-08-01T12:38:06.368Z,34.90
2017-08-01T12:40:33.875Z,34.90
2017-08-01T12:43:02.176Z,34.60
2017-08-01T12:45:29.704Z,34.60
2017-08-01T12:47:57.263Z,34.60
2017-08-01T12:50:24.784Z,34.50
2017-08-01T12:52:52.322Z,34.40
2017-08-01T12:55:19.827Z,34.30
2017-08-01T12:57:47.413Z,34.40
2017-08-01T13:00:14.935Z,34.30
2017-08-01T13:02:42.448Z,34.00
2017-08-01T13:05:09.975Z,33.90
2017-08-01T13:07:37.488Z,33.80
2017-08-01T13:10:05.011Z,33.70
2017-08-01T13:12:32.520Z,33.60
2017-08-01T13:15:00.064Z,33.70
2017-08-01T13:17:27.604Z,33.70
2017-08-01T13:19:55.136Z,33.50
2017-08-01T13:22:22.648Z,33.50
2017-08-01T13:24:50.208Z,33.50
2017-08-01T13:27:17.723Z,33.50
2017-08-01T13:29:45.234Z,33.50
2017-08-01T13:32:12.756Z,33.50
2017-08-01T13:34:40.267Z,33.50
2017-08-01T13:37:08.584Z,33.30
2017-08-01T13:39:36.108Z,33.30
2017-08-01T13:42:03.625Z,33.30
2017-08-01T13:44:31.276Z,33.20
2017-08-01T13:46:58.791Z,33.30
2017-08-01T13:49:26.331Z,33.40
2017-08-01T13:51:53.847Z,33.40
2017-08-01T13:54:21.387Z,33.50
2017-08-01T13:56:48.888Z,33.50
2017-08-01T13:59:16.436Z,33.50
2017-08-01T14:01:43.988Z,33.50
2017-08-01T14:04:11.527Z,33.50
2017-08-01T14:06:39.040Z,33.50
2017-08-01T14:09:06.600Z,33.40
2017-08-01T14:11:34.112Z,33.30
2017-08-01T14:14:01.623Z,33.40
2017-08-01T14:16:29.171Z,33.50
2017-08-01T14:18:56.719Z,33.40
2017-08-01T14:21:25.067Z,33.30
2017-08-01T14:23:52.582Z,33.30
2017-08-01T14:26:20.103Z,33.50
2017-08-01T14:28:47.643Z,33.30
2017-08-01T14:31:15.166Z,33.20
2017-08-01T14:33:42.704Z,33.20
2017-08-01T14:36:10.231Z,33.20
2017-08-01T14:38:37.783Z,33.20
2017-08-01T14:41:06.078Z,33.10
2017-08-01T14:43:33.596Z,33.10
2017-08-01T14:46:01.127Z,33.20
2017-08-01T14:48:28.684Z,33.30
2017-08-01T14:50:56.196Z,33.30
2017-08-01T14:53:23.737Z,33.30
2017-08-01T14:55:51.247Z,33.20
2017-08-01T14:58:18.808Z,33.10
2017-08-01T15:00:46.311Z,33.10
2017-08-01T15:03:13.824Z,33.10
2017-08-01T15:05:41.359Z,33.10
2017-08-01T15:08:08.883Z,33.10
2017-08-01T15:10:37.201Z,33.00
2017-08-01T15:13:04.712Z,33.00
2017-08-01T15:15:32.234Z,33.00
2017-08-01T15:18:00.315Z,33.10
2017-08-01T15:20:27.864Z,33.10
2017-08-01T15:22:55.402Z,33.00
2017-08-01T15:25:22.914Z,33.00
2017-08-01T15:27:50.438Z,33.10
2017-08-01T15:30:17.953Z,33.00
2017-08-01T15:32:45.505Z,33.00
2017-08-01T15:35:13.028Z,33.00
2017-08-01T15:37:40.583Z,33.00
2017-08-01T15:40:08.106Z,32.90
2017-08-01T15:42:35.632Z,32.90
2017-08-01T15:45:03.164Z,32.90
2017-08-01T15:47:30.728Z,32.80
2017-08-01T15:49:59.035Z,32.80
2017-08-01T15:52:26.555Z,32.70
2017-08-01T15:54:54.119Z,32.70
2017-08-01T15:57:21.640Z,32.70
2017-08-01T15:59:49.161Z,32.60
2017-08-01T16:02:16.715Z,32.60
2017-08-01T16:04:44.245Z,32.50
2017-08-01T16:07:11.779Z,32.40
2017-08-01T16:09:39.308Z,32.50
2017-08-01T16:12:06.817Z,32.50
2017-08-01T16:14:34.403Z,32.60
2017-08-01T16:17:01.909Z,32.50
2017-08-01T16:19:29.420Z,32.50
2017-08-01T16:21:56.951Z,32.40
2017-08-01T16:24:25.240Z,32.40
2017-08-01T16:26:52.800Z,32.30
2017-08-01T16:29:21.071Z,32.30
2017-08-01T16:31:48.580Z,32.30
2017-08-01T16:34:16.136Z,32.30
2017-08-01T16:36:43.660Z,32.30
2017-08-01T16:39:11.176Z,32.20
2017-08-01T16:41:38.713Z,32.10
2017-08-01T16:44:06.260Z,32.10
2017-08-01T16:46:33.782Z,32.10
2017-08-01T16:49:01.287Z,32.10
2017-08-01T16:51:28.844Z,32.00
2017-08-01T16:53:56.356Z,31.90
2017-08-01T16:56:23.875Z,32.00
2017-08-01T16:58:51.403Z,32.00
2017-08-01T17:01:18.912Z,31.90
2017-08-01T17:03:46.452Z,31.80
2017-08-01T17:06:14.736Z,31.70
2017-08-01T17:08:42.292Z,31.70
2017-08-01T17:11:10.580Z,31.60
2017-08-01T17:13:38.092Z,31.60
2017-08-01T17:16:05.615Z,31.40
2017-08-01T17:18:33.123Z,31.40
2017-08-01T17:21:00.664Z,31.30
2017-08-01T17:23:28.177Z,31.10
2017-08-01T17:25:55.729Z,30.90
2017-08-01T17:28:23.252Z,30.70
2017-08-01T17:30:50.808Z,30.30
2017-08-01T17:33:18.316Z,30.40
2017-08-01T17:35:45.827Z,30.30
2017-08-01T17:38:13.352Z,30.10
2017-08-01T17:40:40.893Z,29.70
2017-08-01T17:43:08.449Z,29.50
2017-08-01T17:45:35.963Z,29.40
2017-08-01T17:48:04.244Z,29.50
2017-08-01T17:50:31.783Z,29.50
2017-08-01T17:52:59.311Z,29.50
2017-08-01T17:55:26.858Z,29.60
2017-08-01T17:57:54.366Z,29.80
2017-08-01T18:00:22.671Z,29.80
2017-08-01T18:02:50.197Z,29.70
2017-08-01T18:05:17.752Z,29.60
2017-08-01T18:07:45.261Z,29.40
2017-08-01T18:10:12.768Z,29.00
2017-08-01T18:12:41.081Z,28.30
2017-08-01T18:15:08.604Z,28.20
2017-08-01T18:17:36.143Z,28.10
2017-08-01T18:20:03.667Z,28.00
2017-08-01T18:22:31.204Z,28.00
2017-08-01T18:25:09.252Z,28.00
2017-08-01T18:27:36.771Z,28.00
2017-08-01T18:30:04.288Z,28.00
2017-08-01T18:32:31.815Z,28.10
2017-08-01T18:34:59.331Z,28.10
2017-08-01T18:37:26.863Z,27.80
2017-08-01T18:39:55.140Z,27.50
2017-08-01T18:42:23.447Z,27.50
2017-08-01T18:44:50.979Z,27.50
2017-08-01T18:47:19.256Z,27.30
2017-08-01T18:49:46.790Z,27.20
2017-08-01T18:52:14.307Z,27.30
2017-08-01T18:54:41.845Z,27.30
2017-08-01T18:57:09.377Z,27.20
2017-08-01T18:59:37.703Z,26.50
2017-08-01T19:02:05.256Z,26.40
2017-08-01T19:04:32.836Z,26.00
2017-08-01T19:07:00.359Z,25.40
2017-08-01T19:09:27.888Z,25.00
2017-08-01T19:11:56.186Z,24.30
2017-08-01T19:14:23.721Z,24.20
2017-08-01T19:16:51.238Z,24.00
2017-08-01T19:19:18.805Z,23.80
2017-08-01T19:21:46.334Z,23.70
2017-08-01T19:24:13.851Z,23.60
2017-08-01T19:26:41.401Z,23.20
2017-08-01T19:29:09.671Z,22.60
2017-08-01T19:31:37.253Z,22.50
2017-08-01T19:34:05.015Z,22.60
2017-08-01T19:36:32.577Z,22.60
2017-08-01T19:39:00.158Z,22.60
2017-08-01T19:41:27.692Z,22.60
2017-08-01T19:43:55.333Z,22.00
2017-08-01T19:46:23.702Z,21.70
2017-08-01T19:48:51.329Z,21.60
2017-08-01T19:51:18.965Z,21.60
2017-08-01T19:53:46.549Z,21.60
2017-08-01T19:56:14.144Z,21.80
2017-08-01T19:58:41.698Z,21.80
2017-08-01T20:01:09.380Z,21.80
2017-08-01T20:03:36.920Z,21.80
2017-08-01T20:06:05.296Z,21.40
2017-08-01T20:08:33.660Z,21.40
2017-08-01T20:11:01.243Z,21.40
2017-08-01T20:13:28.851Z,21.40
2017-08-01T20:15:56.452Z,21.60
2017-08-01T20:18:25.252Z,21.60
2017-08-01T20:20:52.880Z,21.50
2017-08-01T20:23:20.437Z,21.60
2017-08-01T20:25:47.975Z,21.70
2017-08-01T20:28:15.614Z,21.70
2017-08-01T20:30:43.151Z,21.50
2017-08-01T20:33:10.747Z,21.60
2017-08-01T20:35:39.241Z,21.50
2017-08-01T20:38:07.642Z,21.80
2017-08-01T20:40:35.202Z,21.80
2017-08-01T20:43:02.844Z,21.70
2017-08-01T20:45:32.996Z,21.70
2017-08-01T20:48:00.589Z,21.90
2017-08-01T20:50:31.726Z,21.80
2017-08-01T20:52:59.290Z,21.70
2017-08-01T20:55:26.948Z,21.70
2017-08-01T20:57:54.501Z,21.50
2017-08-01T21:00:22.079Z,21.30
2017-08-01T21:02:49.644Z,21.30
2017-08-01T21:05:17.243Z,21.30
2017-08-01T21:07:44.844Z,21.30
2017-08-01T21:10:12.391Z,21.20
2017-08-01T21:12:39.971Z,21.00
2017-08-01T21:15:07.547Z,20.90
2017-08-01T21:17:35.144Z,20.70
2017-08-01T21:20:02.676Z,20.70
2017-08-01T21:22:30.232Z,21.10
2017-08-01T21:24:57.792Z,21.30
2017-08-01T21:27:25.315Z,21.30
2017-08-01T21:29:52.885Z,21.40
2017-08-01T21:32:20.404Z,21.40
2017-08-01T21:34:47.956Z,21.30
2017-08-01T21:37:15.468Z,21.30
2017-08-01T21:39:43.019Z,21.50
2017-08-01T21:42:10.552Z,21.60
2017-08-01T21:44:38.075Z,21.50
2017-08-01T21:47:05.618Z,21.40
2017-08-01T21:49:33.204Z,21.40
2017-08-01T21:52:00.779Z,21.30
2017-08-01T21:54:28.324Z,21.40
2017-08-01T21:56:55.871Z,21.60
2017-08-01T21:59:23.419Z,21.40
2017-08-01T22:01:50.957Z,21.60
2017-08-01T22:04:18.533Z,21.70
2017-08-01T22:06:46.061Z,21.50
2017-08-01T22:09:14.400Z,21.60
2017-08-01T22:11:41.974Z,21.60
2017-08-01T22:14:09.491Z,21.60
2017-08-01T22:16:37.028Z,21.40
2017-08-01T22:19:05.327Z,21.40
2017-08-01T22:21:32.921Z,21.30
2017-08-01T22:24:00.462Z,21.20
2017-08-01T22:26:27.987Z,21.30
2017-08-01T22:28:55.540Z,21.20
2017-08-01T22:31:23.836Z,21.10
2017-08-01T22:33:51.403Z,21.10
2017-08-01T22:36:18.923Z,21.10
2017-08-01T22:38:46.452Z,21.10
2017-08-01T22:41:13.982Z,20.90
2017-08-01T22:43:41.501Z,21.10
2017-08-01T22:46:09.057Z,21.10
2017-08-01T22:48:36.612Z,20.80
2017-08-01T22:51:04.349Z,20.90
2017-08-01T22:53:31.943Z,21.10
2017-08-01T22:55:59.495Z,21.00
2017-08-01T22:58:27.030Z,21.10
2017-08-01T23:00:54.563Z,20.90
2017-08-01T23:03:22.123Z,21.00
2017-08-01T23:05:49.639Z,21.20
2017-08-01T23:08:17.155Z,21.20
2017-08-01T23:10:44.693Z,20.80
2017-08-01T23:13:12.300Z,20.90
2017-08-01T23:15:39.846Z,21.10
2017-08-01T23:18:07.371Z,21.10
2017-08-01T23:20:34.919Z,21.30
2017-08-01T23:23:02.437Z,21.20
2017-08-01T23:25:29.988Z,21.10
2017-08-01T23:27:57.571Z,21.00
2017-08-01T23:30:25.160Z,20.90
2017-08-01T23:32:52.706Z,21.00
2017-08-01T23:35:20.220Z,20.90
2017-08-01T23:37:48.563Z,20.70
2017-08-01T23:40:16.128Z,20.70
2017-08-01T23:42:43.687Z,20.60
2017-08-01T23:45:11.223Z,20.80
2017-08-01T23:47:38.740Z,20.60
2017-08-01T23:50:06.303Z,20.40
2017-08-01T23:52:33.827Z,20.40
2017-08-01T23:55:01.424Z,20.40
2017-08-01T23:57:28.955Z,20.50
2017-08-01T23:59:56.551Z,20.60
